sensor_id;sensor_type;location;lat;lon;timestamp;P1;durP1;ratioP1;P2;durP2;ratioP2
18818;SDS011;9537;45.594;9.294;2023-08-01T00:00:10;3.83;;;3.53;;
18818;SDS011;9537;45.594;9.294;2023-08-01T00:01:12;4.05;;;3.72;;
18818;SDS011;9537;45.594;9.294;2023-08-01T00:02:14;4.75;;;3.50;;
18818;SDS011;9537;45.594;9.294;2023-08-01T00:03:16;4.00;;;3.47;;
18818;SDS011;9537;45.594;9.294;2023-08-01T00:04:18;4.88;;;3.70;;
18818;SDS011;9537;45.594;9.294;2023-08-01T00:05:19;4.78;;;3.55;;
18818;SDS011;9537;45.594;9.294;2023-08-01T00:06:20;5.68;;;3.40;;
18818;SDS011;9537;45.594;9.294;2023-08-01T00:07:24;5.63;;;3.95;;
18818;SDS011;9537;45.594;9.294;2023-08-01T00:08:26;3.88;;;3.53;;
18818;SDS011;9537;45.594;9.294;2023-08-01T00:09:28;4.07;;;3.40;;
18818;SDS011;9537;45.594;9.294;2023-08-01T00:10:29;4.18;;;3.10;;
18818;SDS011;9537;45.594;9.294;2023-08-01T00:11:30;3.65;;;3.35;;
18818;SDS011;9537;45.594;9.294;2023-08-01T00:12:31;4.68;;;3.22;;
18818;SDS011;9537;45.594;9.294;2023-08-01T00:13:33;6.40;;;3.67;;
18818;SDS011;9537;45.594;9.294;2023-08-01T00:14:35;4.93;;;3.55;;
18818;SDS011;9537;45.594;9.294;2023-08-01T00:15:37;5.43;;;3.67;;
18818;SDS011;9537;45.594;9.294;2023-08-01T00:16:38;4.80;;;3.25;;
18818;SDS011;9537;45.594;9.294;2023-08-01T00:17:39;4.00;;;3.60;;
18818;SDS011;9537;45.594;9.294;2023-08-01T00:18:40;3.90;;;3.58;;
18818;SDS011;9537;45.594;9.294;2023-08-01T00:19:42;4.95;;;3.92;;
18818;SDS011;9537;45.594;9.294;2023-08-01T00:20:44;4.00;;;3.60;;
18818;SDS011;9537;45.594;9.294;2023-08-01T00:21:44;4.07;;;3.53;;
18818;SDS011;9537;45.594;9.294;2023-08-01T00:22:47;5.65;;;3.97;;
18818;SDS011;9537;45.594;9.294;2023-08-01T00:23:48;3.72;;;3.38;;
18818;SDS011;9537;45.594;9.294;2023-08-01T00:24:49;3.88;;;3.30;;
18818;SDS011;9537;45.594;9.294;2023-08-01T00:25:50;5.10;;;3.42;;
18818;SDS011;9537;45.594;9.294;2023-08-01T00:26:52;4.95;;;3.47;;
18818;SDS011;9537;45.594;9.294;2023-08-01T00:27:55;4.07;;;3.33;;
18818;SDS011;9537;45.594;9.294;2023-08-01T00:28:56;4.35;;;3.05;;
18818;SDS011;9537;45.594;9.294;2023-08-01T00:29:58;3.55;;;3.25;;
18818;SDS011;9537;45.594;9.294;2023-08-01T00:31:02;7.65;;;3.70;;
18818;SDS011;9537;45.594;9.294;2023-08-01T00:32:06;4.13;;;3.75;;
18818;SDS011;9537;45.594;9.294;2023-08-01T00:33:08;4.43;;;3.00;;
18818;SDS011;9537;45.594;9.294;2023-08-01T00:34:09;3.58;;;3.28;;
18818;SDS011;9537;45.594;9.294;2023-08-01T00:35:12;5.97;;;3.60;;
18818;SDS011;9537;45.594;9.294;2023-08-01T00:36:13;4.40;;;3.40;;
18818;SDS011;9537;45.594;9.294;2023-08-01T00:37:14;3.75;;;3.38;;
18818;SDS011;9537;45.594;9.294;2023-08-01T00:38:15;4.20;;;3.13;;
18818;SDS011;9537;45.594;9.294;2023-08-01T00:39:17;5.55;;;3.85;;
18818;SDS011;9537;45.594;9.294;2023-08-01T00:40:17;4.30;;;3.53;;
18818;SDS011;9537;45.594;9.294;2023-08-01T00:41:19;3.95;;;3.55;;
18818;SDS011;9537;45.594;9.294;2023-08-01T00:42:20;3.78;;;3.38;;
18818;SDS011;9537;45.594;9.294;2023-08-01T00:43:22;6.95;;;3.50;;
18818;SDS011;9537;45.594;9.294;2023-08-01T00:44:24;3.67;;;3.25;;
18818;SDS011;9537;45.594;9.294;2023-08-01T00:45:25;5.18;;;3.35;;
18818;SDS011;9537;45.594;9.294;2023-08-01T00:46:27;4.88;;;3.38;;
18818;SDS011;9537;45.594;9.294;2023-08-01T00:47:28;4.43;;;3.28;;
18818;SDS011;9537;45.594;9.294;2023-08-01T00:48:30;5.72;;;3.75;;
18818;SDS011;9537;45.594;9.294;2023-08-01T00:49:31;5.15;;;3.70;;
18818;SDS011;9537;45.594;9.294;2023-08-01T00:50:34;5.57;;;3.40;;
18818;SDS011;9537;45.594;9.294;2023-08-01T00:51:35;4.18;;;3.58;;
18818;SDS011;9537;45.594;9.294;2023-08-01T00:52:37;3.90;;;3.50;;
18818;SDS011;9537;45.594;9.294;2023-08-01T00:53:38;4.70;;;3.78;;
18818;SDS011;9537;45.594;9.294;2023-08-01T00:54:40;4.13;;;3.72;;
18818;SDS011;9537;45.594;9.294;2023-08-01T00:55:41;5.30;;;3.55;;
18818;SDS011;9537;45.594;9.294;2023-08-01T00:56:43;4.78;;;3.72;;
18818;SDS011;9537;45.594;9.294;2023-08-01T00:57:45;4.55;;;3.72;;
18818;SDS011;9537;45.594;9.294;2023-08-01T00:58:47;4.45;;;3.40;;
18818;SDS011;9537;45.594;9.294;2023-08-01T00:59:48;3.88;;;3.47;;
18818;SDS011;9537;45.594;9.294;2023-08-01T01:00:49;3.80;;;3.22;;
18818;SDS011;9537;45.594;9.294;2023-08-01T01:01:51;4.10;;;3.70;;
18818;SDS011;9537;45.594;9.294;2023-08-01T01:02:52;4.32;;;3.92;;
18818;SDS011;9537;45.594;9.294;2023-08-01T01:03:54;3.80;;;3.50;;
18818;SDS011;9537;45.594;9.294;2023-08-01T01:04:55;4.57;;;4.03;;
18818;SDS011;9537;45.594;9.294;2023-08-01T01:06:02;3.80;;;3.50;;
18818;SDS011;9537;45.594;9.294;2023-08-01T01:07:09;3.72;;;3.35;;
18818;SDS011;9537;45.594;9.294;2023-08-01T01:08:11;4.75;;;4.20;;
18818;SDS011;9537;45.594;9.294;2023-08-01T01:09:15;3.80;;;3.38;;
18818;SDS011;9537;45.594;9.294;2023-08-01T01:10:18;3.45;;;3.15;;
18818;SDS011;9537;45.594;9.294;2023-08-01T01:11:18;4.95;;;3.22;;
18818;SDS011;9537;45.594;9.294;2023-08-01T01:12:20;4.30;;;3.53;;
18818;SDS011;9537;45.594;9.294;2023-08-01T01:13:21;3.75;;;3.40;;
18818;SDS011;9537;45.594;9.294;2023-08-01T01:14:22;4.07;;;3.40;;
18818;SDS011;9537;45.594;9.294;2023-08-01T01:15:23;5.68;;;3.70;;
18818;SDS011;9537;45.594;9.294;2023-08-01T01:16:25;4.10;;;3.70;;
18818;SDS011;9537;45.594;9.294;2023-08-01T01:17:26;4.30;;;3.75;;
18818;SDS011;9537;45.594;9.294;2023-08-01T01:18:27;3.58;;;3.28;;
18818;SDS011;9537;45.594;9.294;2023-08-01T01:19:28;3.22;;;2.92;;
18818;SDS011;9537;45.594;9.294;2023-08-01T01:20:32;3.72;;;3.30;;
18818;SDS011;9537;45.594;9.294;2023-08-01T01:21:34;4.22;;;3.30;;
18818;SDS011;9537;45.594;9.294;2023-08-01T01:22:36;3.90;;;3.47;;
18818;SDS011;9537;45.594;9.294;2023-08-01T01:23:38;4.38;;;3.47;;
18818;SDS011;9537;45.594;9.294;2023-08-01T01:24:40;4.32;;;3.13;;
18818;SDS011;9537;45.594;9.294;2023-08-01T01:25:43;2.90;;;2.67;;
18818;SDS011;9537;45.594;9.294;2023-08-01T01:26:46;3.88;;;2.95;;
18818;SDS011;9537;45.594;9.294;2023-08-01T01:27:50;4.97;;;3.45;;
18818;SDS011;9537;45.594;9.294;2023-08-01T01:28:52;3.70;;;3.40;;
18818;SDS011;9537;45.594;9.294;2023-08-01T01:29:55;4.72;;;3.63;;
18818;SDS011;9537;45.594;9.294;2023-08-01T01:30:58;4.30;;;3.50;;
18818;SDS011;9537;45.594;9.294;2023-08-01T01:32:00;5.55;;;3.65;;
18818;SDS011;9537;45.594;9.294;2023-08-01T01:33:02;4.45;;;3.00;;
18818;SDS011;9537;45.594;9.294;2023-08-01T01:34:04;6.97;;;3.55;;
18818;SDS011;9537;45.594;9.294;2023-08-01T01:35:06;3.15;;;2.92;;
18818;SDS011;9537;45.594;9.294;2023-08-01T01:36:08;3.80;;;3.40;;
18818;SDS011;9537;45.594;9.294;2023-08-01T01:37:10;4.03;;;3.30;;
18818;SDS011;9537;45.594;9.294;2023-08-01T01:38:11;4.65;;;3.78;;
18818;SDS011;9537;45.594;9.294;2023-08-01T01:39:13;3.40;;;3.10;;
18818;SDS011;9537;45.594;9.294;2023-08-01T01:40:13;3.47;;;3.17;;
18818;SDS011;9537;45.594;9.294;2023-08-01T01:41:15;3.88;;;3.45;;
18818;SDS011;9537;45.594;9.294;2023-08-01T01:42:16;4.22;;;2.92;;
18818;SDS011;9537;45.594;9.294;2023-08-01T01:43:18;4.38;;;3.55;;
18818;SDS011;9537;45.594;9.294;2023-08-01T01:44:18;7.70;;;3.25;;
18818;SDS011;9537;45.594;9.294;2023-08-01T01:45:20;3.58;;;3.08;;
18818;SDS011;9537;45.594;9.294;2023-08-01T01:46:21;3.85;;;3.40;;
18818;SDS011;9537;45.594;9.294;2023-08-01T01:47:22;6.85;;;3.70;;
18818;SDS011;9537;45.594;9.294;2023-08-01T01:48:23;4.35;;;3.53;;
18818;SDS011;9537;45.594;9.294;2023-08-01T01:49:24;4.72;;;3.95;;
18818;SDS011;9537;45.594;9.294;2023-08-01T01:50:26;4.75;;;3.58;;
18818;SDS011;9537;45.594;9.294;2023-08-01T01:51:28;7.85;;;3.70;;
18818;SDS011;9537;45.594;9.294;2023-08-01T01:52:31;6.15;;;3.40;;
18818;SDS011;9537;45.594;9.294;2023-08-01T01:53:33;6.85;;;3.70;;
18818;SDS011;9537;45.594;9.294;2023-08-01T01:54:34;3.65;;;3.35;;
18818;SDS011;9537;45.594;9.294;2023-08-01T01:55:35;3.95;;;2.80;;
18818;SDS011;9537;45.594;9.294;2023-08-01T01:56:37;3.50;;;2.95;;
18818;SDS011;9537;45.594;9.294;2023-08-01T01:57:37;3.88;;;3.20;;
18818;SDS011;9537;45.594;9.294;2023-08-01T01:58:40;3.05;;;2.75;;
18818;SDS011;9537;45.594;9.294;2023-08-01T01:59:41;3.45;;;3.15;;
18818;SDS011;9537;45.594;9.294;2023-08-01T02:00:42;4.20;;;3.67;;
18818;SDS011;9537;45.594;9.294;2023-08-01T02:01:43;3.70;;;3.30;;
18818;SDS011;9537;45.594;9.294;2023-08-01T02:02:45;4.32;;;3.60;;
18818;SDS011;9537;45.594;9.294;2023-08-01T02:03:46;4.43;;;3.47;;
18818;SDS011;9537;45.594;9.294;2023-08-01T02:04:48;4.20;;;3.60;;
18818;SDS011;9537;45.594;9.294;2023-08-01T02:05:50;3.78;;;3.45;;
18818;SDS011;9537;45.594;9.294;2023-08-01T02:06:53;5.22;;;4.20;;
18818;SDS011;9537;45.594;9.294;2023-08-01T02:07:54;6.22;;;4.28;;
18818;SDS011;9537;45.594;9.294;2023-08-01T02:08:56;5.40;;;3.88;;
18818;SDS011;9537;45.594;9.294;2023-08-01T02:09:57;4.22;;;3.60;;
18818;SDS011;9537;45.594;9.294;2023-08-01T02:10:58;4.20;;;3.80;;
18818;SDS011;9537;45.594;9.294;2023-08-01T02:11:59;5.65;;;3.83;;
18818;SDS011;9537;45.594;9.294;2023-08-01T02:13:01;4.10;;;3.70;;
18818;SDS011;9537;45.594;9.294;2023-08-01T02:14:02;3.67;;;3.35;;
18818;SDS011;9537;45.594;9.294;2023-08-01T02:15:04;6.50;;;3.63;;
18818;SDS011;9537;45.594;9.294;2023-08-01T02:16:06;5.00;;;3.22;;
18818;SDS011;9537;45.594;9.294;2023-08-01T02:17:06;5.32;;;2.88;;
18818;SDS011;9537;45.594;9.294;2023-08-01T02:18:08;3.15;;;2.85;;
18818;SDS011;9537;45.594;9.294;2023-08-01T02:19:09;3.47;;;2.83;;
18818;SDS011;9537;45.594;9.294;2023-08-01T02:20:11;3.50;;;3.20;;
18818;SDS011;9537;45.594;9.294;2023-08-01T02:21:11;3.47;;;2.85;;
18818;SDS011;9537;45.594;9.294;2023-08-01T02:22:14;2.97;;;2.78;;
18818;SDS011;9537;45.594;9.294;2023-08-01T02:23:15;3.75;;;2.90;;
18818;SDS011;9537;45.594;9.294;2023-08-01T02:24:17;3.90;;;3.08;;
18818;SDS011;9537;45.594;9.294;2023-08-01T02:25:18;4.00;;;3.60;;
18818;SDS011;9537;45.594;9.294;2023-08-01T02:26:19;3.42;;;3.10;;
18818;SDS011;9537;45.594;9.294;2023-08-01T02:27:22;3.75;;;3.28;;
18818;SDS011;9537;45.594;9.294;2023-08-01T02:28:24;4.43;;;2.80;;
18818;SDS011;9537;45.594;9.294;2023-08-01T02:29:25;3.40;;;3.08;;
18818;SDS011;9537;45.594;9.294;2023-08-01T02:30:25;3.30;;;3.00;;
18818;SDS011;9537;45.594;9.294;2023-08-01T02:31:29;4.00;;;3.00;;
18818;SDS011;9537;45.594;9.294;2023-08-01T02:32:29;3.08;;;2.80;;
18818;SDS011;9537;45.594;9.294;2023-08-01T02:33:31;3.63;;;2.70;;
18818;SDS011;9537;45.594;9.294;2023-08-01T02:34:32;5.15;;;3.53;;
18818;SDS011;9537;45.594;9.294;2023-08-01T02:35:33;5.68;;;3.10;;
18818;SDS011;9537;45.594;9.294;2023-08-01T02:36:34;4.07;;;2.55;;
18818;SDS011;9537;45.594;9.294;2023-08-01T02:37:38;2.55;;;2.35;;
18818;SDS011;9537;45.594;9.294;2023-08-01T02:38:38;2.45;;;2.20;;
18818;SDS011;9537;45.594;9.294;2023-08-01T02:39:40;2.35;;;2.15;;
18818;SDS011;9537;45.594;9.294;2023-08-01T02:40:41;2.55;;;2.10;;
18818;SDS011;9537;45.594;9.294;2023-08-01T02:41:43;2.55;;;1.92;;
18818;SDS011;9537;45.594;9.294;2023-08-01T02:42:43;2.45;;;1.88;;
18818;SDS011;9537;45.594;9.294;2023-08-01T02:43:45;2.22;;;2.00;;
18818;SDS011;9537;45.594;9.294;2023-08-01T02:44:46;2.08;;;1.90;;
18818;SDS011;9537;45.594;9.294;2023-08-01T02:45:48;1.55;;;1.45;;
18818;SDS011;9537;45.594;9.294;2023-08-01T02:46:48;1.77;;;1.60;;
18818;SDS011;9537;45.594;9.294;2023-08-01T02:47:50;4.35;;;1.67;;
18818;SDS011;9537;45.594;9.294;2023-08-01T02:48:51;2.28;;;1.60;;
18818;SDS011;9537;45.594;9.294;2023-08-01T02:49:52;3.13;;;2.38;;
18818;SDS011;9537;45.594;9.294;2023-08-01T02:50:53;3.47;;;1.20;;
18818;SDS011;9537;45.594;9.294;2023-08-01T02:51:54;1.27;;;1.17;;
18818;SDS011;9537;45.594;9.294;2023-08-01T02:52:57;1.38;;;1.27;;
18818;SDS011;9537;45.594;9.294;2023-08-01T02:53:58;1.58;;;1.00;;
18818;SDS011;9537;45.594;9.294;2023-08-01T02:55:00;0.95;;;0.95;;
18818;SDS011;9537;45.594;9.294;2023-08-01T02:56:01;1.02;;;0.90;;
18818;SDS011;9537;45.594;9.294;2023-08-01T02:57:03;2.03;;;1.05;;
18818;SDS011;9537;45.594;9.294;2023-08-01T02:58:04;1.48;;;1.10;;
18818;SDS011;9537;45.594;9.294;2023-08-01T02:59:06;1.05;;;0.95;;
18818;SDS011;9537;45.594;9.294;2023-08-01T03:00:08;1.63;;;1.10;;
18818;SDS011;9537;45.594;9.294;2023-08-01T03:01:11;1.27;;;1.10;;
18818;SDS011;9537;45.594;9.294;2023-08-01T03:02:13;1.38;;;1.00;;
18818;SDS011;9537;45.594;9.294;2023-08-01T03:03:14;1.00;;;0.80;;
18818;SDS011;9537;45.594;9.294;2023-08-01T03:04:16;0.85;;;0.85;;
18818;SDS011;9537;45.594;9.294;2023-08-01T03:05:17;1.00;;;1.00;;
18818;SDS011;9537;45.594;9.294;2023-08-01T03:06:19;1.17;;;0.90;;
18818;SDS011;9537;45.594;9.294;2023-08-01T03:07:19;0.90;;;0.90;;
18818;SDS011;9537;45.594;9.294;2023-08-01T03:08:22;1.17;;;1.08;;
18818;SDS011;9537;45.594;9.294;2023-08-01T03:09:23;0.90;;;0.90;;
18818;SDS011;9537;45.594;9.294;2023-08-01T03:10:25;1.75;;;1.00;;
18818;SDS011;9537;45.594;9.294;2023-08-01T03:11:26;1.20;;;1.10;;
18818;SDS011;9537;45.594;9.294;2023-08-01T03:12:27;1.45;;;1.00;;
18818;SDS011;9537;45.594;9.294;2023-08-01T03:13:29;1.20;;;1.08;;
18818;SDS011;9537;45.594;9.294;2023-08-01T03:14:29;1.38;;;1.25;;
18818;SDS011;9537;45.594;9.294;2023-08-01T03:15:32;1.15;;;1.00;;
18818;SDS011;9537;45.594;9.294;2023-08-01T03:16:33;1.60;;;1.10;;
18818;SDS011;9537;45.594;9.294;2023-08-01T03:17:34;1.25;;;1.05;;
18818;SDS011;9537;45.594;9.294;2023-08-01T03:18:35;0.90;;;0.90;;
18818;SDS011;9537;45.594;9.294;2023-08-01T03:19:37;1.10;;;1.00;;
18818;SDS011;9537;45.594;9.294;2023-08-01T03:20:39;2.72;;;1.15;;
18818;SDS011;9537;45.594;9.294;2023-08-01T03:21:41;3.33;;;0.88;;
18818;SDS011;9537;45.594;9.294;2023-08-01T03:22:41;1.52;;;1.00;;
18818;SDS011;9537;45.594;9.294;2023-08-01T03:23:44;1.65;;;1.20;;
18818;SDS011;9537;45.594;9.294;2023-08-01T03:24:45;1.63;;;1.20;;
18818;SDS011;9537;45.594;9.294;2023-08-01T03:25:47;0.90;;;0.90;;
18818;SDS011;9537;45.594;9.294;2023-08-01T03:26:48;1.23;;;1.00;;
18818;SDS011;9537;45.594;9.294;2023-08-01T03:27:49;1.20;;;1.10;;
18818;SDS011;9537;45.594;9.294;2023-08-01T03:28:50;1.95;;;1.25;;
18818;SDS011;9537;45.594;9.294;2023-08-01T03:29:51;1.42;;;0.95;;
18818;SDS011;9537;45.594;9.294;2023-08-01T03:30:53;1.25;;;1.15;;
18818;SDS011;9537;45.594;9.294;2023-08-01T03:31:54;1.50;;;1.00;;
18818;SDS011;9537;45.594;9.294;2023-08-01T03:32:55;1.05;;;0.98;;
18818;SDS011;9537;45.594;9.294;2023-08-01T03:33:56;1.05;;;0.98;;
18818;SDS011;9537;45.594;9.294;2023-08-01T03:34:58;1.10;;;1.00;;
18818;SDS011;9537;45.594;9.294;2023-08-01T03:35:59;1.70;;;1.25;;
18818;SDS011;9537;45.594;9.294;2023-08-01T03:37:00;2.42;;;1.25;;
18818;SDS011;9537;45.594;9.294;2023-08-01T03:38:02;2.03;;;1.00;;
18818;SDS011;9537;45.594;9.294;2023-08-01T03:39:04;2.15;;;1.10;;
18818;SDS011;9537;45.594;9.294;2023-08-01T03:40:06;1.58;;;1.35;;
18818;SDS011;9537;45.594;9.294;2023-08-01T03:41:08;1.27;;;1.20;;
18818;SDS011;9537;45.594;9.294;2023-08-01T03:42:10;3.40;;;1.10;;
18818;SDS011;9537;45.594;9.294;2023-08-01T03:43:11;1.40;;;1.00;;
18818;SDS011;9537;45.594;9.294;2023-08-01T03:44:12;1.33;;;1.23;;
18818;SDS011;9537;45.594;9.294;2023-08-01T03:45:14;2.25;;;1.30;;
18818;SDS011;9537;45.594;9.294;2023-08-01T03:46:15;1.35;;;1.25;;
18818;SDS011;9537;45.594;9.294;2023-08-01T03:47:17;1.70;;;1.13;;
18818;SDS011;9537;45.594;9.294;2023-08-01T03:48:18;1.77;;;1.42;;
18818;SDS011;9537;45.594;9.294;2023-08-01T03:49:18;1.23;;;1.10;;
18818;SDS011;9537;45.594;9.294;2023-08-01T03:50:20;1.38;;;1.27;;
18818;SDS011;9537;45.594;9.294;2023-08-01T03:51:21;1.45;;;1.20;;
18818;SDS011;9537;45.594;9.294;2023-08-01T03:52:22;1.52;;;1.40;;
18818;SDS011;9537;45.594;9.294;2023-08-01T03:53:23;1.27;;;1.15;;
18818;SDS011;9537;45.594;9.294;2023-08-01T03:54:26;1.30;;;1.10;;
18818;SDS011;9537;45.594;9.294;2023-08-01T03:55:27;1.38;;;1.27;;
18818;SDS011;9537;45.594;9.294;2023-08-01T03:56:29;1.45;;;1.35;;
18818;SDS011;9537;45.594;9.294;2023-08-01T03:57:29;1.60;;;1.50;;
18818;SDS011;9537;45.594;9.294;2023-08-01T03:58:33;1.48;;;1.38;;
18818;SDS011;9537;45.594;9.294;2023-08-01T03:59:34;2.08;;;1.40;;
18818;SDS011;9537;45.594;9.294;2023-08-01T04:00:36;2.17;;;1.50;;
18818;SDS011;9537;45.594;9.294;2023-08-01T04:01:36;1.60;;;1.38;;
18818;SDS011;9537;45.594;9.294;2023-08-01T04:02:39;1.73;;;1.63;;
18818;SDS011;9537;45.594;9.294;2023-08-01T04:03:40;1.75;;;1.60;;
18818;SDS011;9537;45.594;9.294;2023-08-01T04:04:42;2.17;;;1.73;;
18818;SDS011;9537;45.594;9.294;2023-08-01T04:05:43;2.15;;;1.80;;
18818;SDS011;9537;45.594;9.294;2023-08-01T04:06:44;2.05;;;1.70;;
18818;SDS011;9537;45.594;9.294;2023-08-01T04:07:45;2.10;;;1.67;;
18818;SDS011;9537;45.594;9.294;2023-08-01T04:08:47;2.35;;;2.00;;
18818;SDS011;9537;45.594;9.294;2023-08-01T04:09:49;2.17;;;1.98;;
18818;SDS011;9537;45.594;9.294;2023-08-01T04:10:50;2.55;;;2.05;;
18818;SDS011;9537;45.594;9.294;2023-08-01T04:11:51;2.35;;;2.10;;
18818;SDS011;9537;45.594;9.294;2023-08-01T04:12:52;2.80;;;2.38;;
18818;SDS011;9537;45.594;9.294;2023-08-01T04:13:54;2.58;;;2.30;;
18818;SDS011;9537;45.594;9.294;2023-08-01T04:14:55;2.55;;;2.10;;
18818;SDS011;9537;45.594;9.294;2023-08-01T04:15:56;2.47;;;2.28;;
18818;SDS011;9537;45.594;9.294;2023-08-01T04:16:57;2.53;;;2.13;;
18818;SDS011;9537;45.594;9.294;2023-08-01T04:17:59;3.88;;;2.60;;
18818;SDS011;9537;45.594;9.294;2023-08-01T04:19:00;4.28;;;2.30;;
18818;SDS011;9537;45.594;9.294;2023-08-01T04:20:01;3.38;;;2.13;;
18818;SDS011;9537;45.594;9.294;2023-08-01T04:21:02;2.72;;;2.30;;
18818;SDS011;9537;45.594;9.294;2023-08-01T04:22:04;3.15;;;2.60;;
18818;SDS011;9537;45.594;9.294;2023-08-01T04:23:05;3.88;;;2.30;;
18818;SDS011;9537;45.594;9.294;2023-08-01T04:24:07;6.03;;;2.60;;
18818;SDS011;9537;45.594;9.294;2023-08-01T04:25:09;3.67;;;2.30;;
18818;SDS011;9537;45.594;9.294;2023-08-01T04:26:10;2.60;;;2.40;;
18818;SDS011;9537;45.594;9.294;2023-08-01T04:27:11;2.83;;;2.60;;
18818;SDS011;9537;45.594;9.294;2023-08-01T04:28:13;4.50;;;2.60;;
18818;SDS011;9537;45.594;9.294;2023-08-01T04:29:14;3.42;;;2.72;;
18818;SDS011;9537;45.594;9.294;2023-08-01T04:30:17;3.10;;;2.28;;
18818;SDS011;9537;45.594;9.294;2023-08-01T04:31:18;3.78;;;2.85;;
18818;SDS011;9537;45.594;9.294;2023-08-01T04:32:20;3.13;;;2.30;;
18818;SDS011;9537;45.594;9.294;2023-08-01T04:33:21;3.50;;;3.20;;
18818;SDS011;9537;45.594;9.294;2023-08-01T04:34:22;3.05;;;2.70;;
18818;SDS011;9537;45.594;9.294;2023-08-01T04:35:23;4.57;;;3.30;;
18818;SDS011;9537;45.594;9.294;2023-08-01T04:36:25;6.18;;;3.08;;
18818;SDS011;9537;45.594;9.294;2023-08-01T04:37:25;3.58;;;3.10;;
18818;SDS011;9537;45.594;9.294;2023-08-01T04:38:27;3.50;;;2.88;;
18818;SDS011;9537;45.594;9.294;2023-08-01T04:39:28;4.13;;;3.30;;
18818;SDS011;9537;45.594;9.294;2023-08-01T04:40:31;4.00;;;3.35;;
18818;SDS011;9537;45.594;9.294;2023-08-01T04:41:32;4.35;;;3.63;;
18818;SDS011;9537;45.594;9.294;2023-08-01T04:42:33;4.22;;;3.40;;
18818;SDS011;9537;45.594;9.294;2023-08-01T04:43:34;4.38;;;3.40;;
18818;SDS011;9537;45.594;9.294;2023-08-01T04:44:35;4.90;;;3.70;;
18818;SDS011;9537;45.594;9.294;2023-08-01T04:45:37;3.92;;;3.35;;
18818;SDS011;9537;45.594;9.294;2023-08-01T04:46:38;5.18;;;3.47;;
18818;SDS011;9537;45.594;9.294;2023-08-01T04:47:39;3.63;;;3.30;;
18818;SDS011;9537;45.594;9.294;2023-08-01T04:48:40;4.45;;;3.85;;
18818;SDS011;9537;45.594;9.294;2023-08-01T04:49:42;4.20;;;3.80;;
18818;SDS011;9537;45.594;9.294;2023-08-01T04:50:43;5.22;;;3.60;;
18818;SDS011;9537;45.594;9.294;2023-08-01T04:51:48;5.03;;;4.32;;
18818;SDS011;9537;45.594;9.294;2023-08-01T04:52:49;4.22;;;3.83;;
18818;SDS011;9537;45.594;9.294;2023-08-01T04:53:51;4.28;;;3.72;;
18818;SDS011;9537;45.594;9.294;2023-08-01T04:54:51;3.78;;;3.40;;
18818;SDS011;9537;45.594;9.294;2023-08-01T04:55:55;4.15;;;2.92;;
18818;SDS011;9537;45.594;9.294;2023-08-01T04:56:55;4.88;;;3.85;;
18818;SDS011;9537;45.594;9.294;2023-08-01T04:57:57;4.40;;;3.38;;
18818;SDS011;9537;45.594;9.294;2023-08-01T04:58:58;4.32;;;3.60;;
18818;SDS011;9537;45.594;9.294;2023-08-01T05:00:01;4.78;;;3.38;;
18818;SDS011;9537;45.594;9.294;2023-08-01T05:01:03;3.78;;;3.38;;
18818;SDS011;9537;45.594;9.294;2023-08-01T05:02:05;6.68;;;3.15;;
18818;SDS011;9537;45.594;9.294;2023-08-01T05:03:05;3.90;;;3.10;;
18818;SDS011;9537;45.594;9.294;2023-08-01T05:04:07;3.53;;;3.20;;
18818;SDS011;9537;45.594;9.294;2023-08-01T05:05:08;3.60;;;3.30;;
18818;SDS011;9537;45.594;9.294;2023-08-01T05:06:10;3.85;;;3.40;;
18818;SDS011;9537;45.594;9.294;2023-08-01T05:07:10;4.28;;;3.45;;
18818;SDS011;9537;45.594;9.294;2023-08-01T05:08:11;4.85;;;2.90;;
18818;SDS011;9537;45.594;9.294;2023-08-01T05:09:13;5.00;;;3.22;;
18818;SDS011;9537;45.594;9.294;2023-08-01T05:10:13;3.33;;;2.92;;
18818;SDS011;9537;45.594;9.294;2023-08-01T05:11:17;3.45;;;2.75;;
18818;SDS011;9537;45.594;9.294;2023-08-01T05:12:17;3.50;;;3.08;;
18818;SDS011;9537;45.594;9.294;2023-08-01T05:13:19;4.22;;;3.17;;
18818;SDS011;9537;45.594;9.294;2023-08-01T05:14:20;3.63;;;3.13;;
18818;SDS011;9537;45.594;9.294;2023-08-01T05:15:22;4.40;;;3.35;;
18818;SDS011;9537;45.594;9.294;2023-08-01T05:16:22;4.10;;;3.20;;
18818;SDS011;9537;45.594;9.294;2023-08-01T05:17:24;4.47;;;2.85;;
18818;SDS011;9537;45.594;9.294;2023-08-01T05:18:25;5.85;;;3.42;;
18818;SDS011;9537;45.594;9.294;2023-08-01T05:19:26;3.60;;;3.20;;
18818;SDS011;9537;45.594;9.294;2023-08-01T05:20:27;5.43;;;3.10;;
18818;SDS011;9537;45.594;9.294;2023-08-01T05:21:30;5.85;;;3.25;;
18818;SDS011;9537;45.594;9.294;2023-08-01T05:22:31;5.00;;;3.55;;
18818;SDS011;9537;45.594;9.294;2023-08-01T05:23:33;5.00;;;3.35;;
18818;SDS011;9537;45.594;9.294;2023-08-01T05:24:34;3.88;;;3.45;;
18818;SDS011;9537;45.594;9.294;2023-08-01T05:25:35;3.83;;;3.50;;
18818;SDS011;9537;45.594;9.294;2023-08-01T05:26:37;6.55;;;3.40;;
18818;SDS011;9537;45.594;9.294;2023-08-01T05:27:38;6.03;;;3.05;;
18818;SDS011;9537;45.594;9.294;2023-08-01T05:28:40;4.68;;;3.38;;
18818;SDS011;9537;45.594;9.294;2023-08-01T05:29:40;5.38;;;3.28;;
18818;SDS011;9537;45.594;9.294;2023-08-01T05:30:42;5.07;;;3.50;;
18818;SDS011;9537;45.594;9.294;2023-08-01T05:31:43;3.33;;;2.92;;
18818;SDS011;9537;45.594;9.294;2023-08-01T05:32:44;3.50;;;3.20;;
18818;SDS011;9537;45.594;9.294;2023-08-01T05:33:46;5.70;;;3.22;;
18818;SDS011;9537;45.594;9.294;2023-08-01T05:34:48;3.58;;;3.28;;
18818;SDS011;9537;45.594;9.294;2023-08-01T05:35:49;3.70;;;3.30;;
18818;SDS011;9537;45.594;9.294;2023-08-01T05:36:51;4.13;;;3.72;;
18818;SDS011;9537;45.594;9.294;2023-08-01T05:37:52;6.90;;;3.15;;
18818;SDS011;9537;45.594;9.294;2023-08-01T05:38:53;3.78;;;3.40;;
18818;SDS011;9537;45.594;9.294;2023-08-01T05:39:54;6.50;;;3.85;;
18818;SDS011;9537;45.594;9.294;2023-08-01T05:40:56;3.80;;;3.28;;
18818;SDS011;9537;45.594;9.294;2023-08-01T05:41:58;4.68;;;3.65;;
18818;SDS011;9537;45.594;9.294;2023-08-01T05:42:59;3.88;;;3.25;;
18818;SDS011;9537;45.594;9.294;2023-08-01T05:44:01;3.80;;;3.40;;
18818;SDS011;9537;45.594;9.294;2023-08-01T05:45:03;4.28;;;2.80;;
18818;SDS011;9537;45.594;9.294;2023-08-01T05:46:04;3.17;;;2.88;;
18818;SDS011;9537;45.594;9.294;2023-08-01T05:47:06;5.45;;;3.38;;
18818;SDS011;9537;45.594;9.294;2023-08-01T05:48:07;5.65;;;3.42;;
18818;SDS011;9537;45.594;9.294;2023-08-01T05:49:09;3.75;;;3.42;;
18818;SDS011;9537;45.594;9.294;2023-08-01T05:50:10;4.07;;;3.42;;
18818;SDS011;9537;45.594;9.294;2023-08-01T05:51:12;3.53;;;3.08;;
18818;SDS011;9537;45.594;9.294;2023-08-01T05:52:13;4.70;;;3.60;;
18818;SDS011;9537;45.594;9.294;2023-08-01T05:53:14;3.40;;;3.10;;
18818;SDS011;9537;45.594;9.294;2023-08-01T05:54:15;3.42;;;3.10;;
18818;SDS011;9537;45.594;9.294;2023-08-01T05:55:17;3.33;;;3.03;;
18818;SDS011;9537;45.594;9.294;2023-08-01T05:56:18;3.75;;;3.30;;
18818;SDS011;9537;45.594;9.294;2023-08-01T05:57:20;4.07;;;3.50;;
18818;SDS011;9537;45.594;9.294;2023-08-01T05:58:22;4.10;;;3.58;;
18818;SDS011;9537;45.594;9.294;2023-08-01T05:59:22;3.80;;;3.50;;
18818;SDS011;9537;45.594;9.294;2023-08-01T06:00:24;3.83;;;3.42;;
18818;SDS011;9537;45.594;9.294;2023-08-01T06:01:25;5.38;;;3.35;;
18818;SDS011;9537;45.594;9.294;2023-08-01T06:02:27;4.35;;;3.63;;
18818;SDS011;9537;45.594;9.294;2023-08-01T06:03:27;3.92;;;3.30;;
18818;SDS011;9537;45.594;9.294;2023-08-01T06:04:29;4.05;;;3.47;;
18818;SDS011;9537;45.594;9.294;2023-08-01T06:05:30;5.25;;;3.50;;
18818;SDS011;9537;45.594;9.294;2023-08-01T06:06:31;3.67;;;3.25;;
18818;SDS011;9537;45.594;9.294;2023-08-01T06:07:32;4.22;;;3.58;;
18818;SDS011;9537;45.594;9.294;2023-08-01T06:08:34;5.60;;;3.47;;
18818;SDS011;9537;45.594;9.294;2023-08-01T06:09:35;5.28;;;3.17;;
18818;SDS011;9537;45.594;9.294;2023-08-01T06:10:35;5.47;;;3.40;;
18818;SDS011;9537;45.594;9.294;2023-08-01T06:11:37;5.07;;;3.45;;
18818;SDS011;9537;45.594;9.294;2023-08-01T06:12:39;4.60;;;3.17;;
18818;SDS011;9537;45.594;9.294;2023-08-01T06:13:41;3.70;;;3.10;;
18818;SDS011;9537;45.594;9.294;2023-08-01T06:14:42;4.03;;;3.40;;
18818;SDS011;9537;45.594;9.294;2023-08-01T06:15:44;3.58;;;3.20;;